createdAt,value
2019-02-17T00:01:25.850Z,18.50
2019-02-17T00:03:59.131Z,18.70
2019-02-17T00:06:33.603Z,18.97
2019-02-17T00:09:10.201Z,18.17
2019-02-17T00:11:43.486Z,17.07
2019-02-17T00:14:16.762Z,17.57
2019-02-17T00:16:50.102Z,15.03
2019-02-17T00:19:23.386Z,15.80
2019-02-17T00:21:56.705Z,15.23
2019-02-17T00:24:30.023Z,15.20
2019-02-17T00:27:03.311Z,14.33
2019-02-17T00:29:36.614Z,15.30
2019-02-17T00:32:10.917Z,16.27
2019-02-17T00:34:45.856Z,15.07
2019-02-17T00:37:19.158Z,16.13
2019-02-17T00:39:54.070Z,16.60
2019-02-17T00:42:27.402Z,15.43
2019-02-17T00:45:00.673Z,15.53
2019-02-17T00:47:34.556Z,15.17
2019-02-17T00:50:09.507Z,15.03
2019-02-17T00:52:42.823Z,16.07
2019-02-17T00:55:16.209Z,16.57
2019-02-17T00:57:49.504Z,16.97
2019-02-17T01:00:22.798Z,17.07
2019-02-17T01:02:56.096Z,16.57
2019-02-17T01:05:30.494Z,16.20
2019-02-17T01:08:03.781Z,15.40
2019-02-17T01:10:37.540Z,15.43
2019-02-17T01:13:10.844Z,15.60
2019-02-17T01:15:44.149Z,17.10
2019-02-17T01:18:17.443Z,16.23
2019-02-17T01:20:50.759Z,14.93
2019-02-17T01:23:24.065Z,14.80
2019-02-17T01:25:57.380Z,15.60
2019-02-17T01:28:30.679Z,15.27
2019-02-17T01:31:04.063Z,17.83
2019-02-17T01:33:37.352Z,15.83
2019-02-17T01:36:10.724Z,16.17
2019-02-17T01:38:44.285Z,16.40
2019-02-17T01:41:17.609Z,16.13
2019-02-17T01:43:52.461Z,15.03
2019-02-17T01:46:25.794Z,16.07
2019-02-17T01:48:59.074Z,18.27
2019-02-17T01:51:34.039Z,20.47
2019-02-17T01:54:07.295Z,22.50
2019-02-17T01:56:40.603Z,20.63
2019-02-17T01:59:13.896Z,17.60
2019-02-17T02:01:47.777Z,16.90
2019-02-17T02:04:21.087Z,19.30
2019-02-17T02:06:54.430Z,19.37
2019-02-17T02:09:27.717Z,20.17
2019-02-17T02:12:01.030Z,19.97
2019-02-17T02:14:34.341Z,20.40
2019-02-17T02:17:07.686Z,21.77
2019-02-17T02:19:40.991Z,22.67
2019-02-17T02:22:14.309Z,18.07
2019-02-17T02:24:47.623Z,19.63
2019-02-17T02:27:20.933Z,19.27
2019-02-17T02:29:54.234Z,19.90
2019-02-17T02:32:27.555Z,19.73
2019-02-17T02:35:00.917Z,18.87
2019-02-17T02:37:34.233Z,18.10
2019-02-17T02:40:08.305Z,22.40
2019-02-17T02:42:42.966Z,18.90
2019-02-17T02:45:16.292Z,19.77
2019-02-17T02:47:49.602Z,19.30
2019-02-17T02:50:22.898Z,21.03
2019-02-17T02:52:56.195Z,19.70
2019-02-17T02:55:29.494Z,17.40
2019-02-17T02:58:02.872Z,18.77
2019-02-17T03:00:36.186Z,19.70
2019-02-17T03:03:09.493Z,19.13
2019-02-17T03:05:44.424Z,17.30
2019-02-17T03:08:17.747Z,18.37
2019-02-17T03:10:51.059Z,18.57
2019-02-17T03:13:24.356Z,18.40
2019-02-17T03:15:57.633Z,17.40
2019-02-17T03:18:30.940Z,16.57
2019-02-17T03:21:04.220Z,16.57
2019-02-17T03:23:37.538Z,16.57
2019-02-17T03:26:10.835Z,16.50
2019-02-17T03:28:44.140Z,16.30
2019-02-17T03:31:17.564Z,16.67
2019-02-17T03:33:50.834Z,17.33
2019-02-17T03:36:24.132Z,17.77
2019-02-17T03:38:57.422Z,17.40
2019-02-17T03:41:30.712Z,17.77
2019-02-17T03:44:04.107Z,17.53
2019-02-17T03:46:37.403Z,18.13
2019-02-17T03:49:10.722Z,18.60
2019-02-17T03:51:44.002Z,17.43
2019-02-17T03:54:17.327Z,17.87
2019-02-17T03:56:50.618Z,18.27
2019-02-17T03:59:23.921Z,20.90
2019-02-17T04:01:57.201Z,18.37
2019-02-17T04:04:30.538Z,18.70
2019-02-17T04:07:04.068Z,17.13
2019-02-17T04:09:37.374Z,17.07
2019-02-17T04:12:10.644Z,16.20
2019-02-17T04:14:44.345Z,16.90
2019-02-17T04:17:17.714Z,15.63
2019-02-17T04:19:50.995Z,17.53
2019-02-17T04:22:25.280Z,16.60
2019-02-17T04:24:58.583Z,16.67
2019-02-17T04:27:31.877Z,17.30
2019-02-17T04:30:06.019Z,17.17
2019-02-17T04:32:39.300Z,25.47
2019-02-17T04:35:12.604Z,17.77
2019-02-17T04:37:45.886Z,17.67
2019-02-17T04:40:19.255Z,15.97
2019-02-17T04:42:52.550Z,16.17
2019-02-17T04:45:25.884Z,15.80
2019-02-17T04:48:00.698Z,16.10
2019-02-17T04:50:33.926Z,15.97
2019-02-17T04:53:07.214Z,16.50
2019-02-17T04:55:40.521Z,17.70
2019-02-17T04:58:13.792Z,17.67
2019-02-17T05:00:47.088Z,18.60
2019-02-17T05:03:20.363Z,18.17
2019-02-17T05:05:53.667Z,18.03
2019-02-17T05:08:26.952Z,18.53
2019-02-17T05:11:00.928Z,17.80
2019-02-17T05:13:34.193Z,17.63
2019-02-17T05:16:07.504Z,17.20
2019-02-17T05:18:42.423Z,17.83
2019-02-17T05:21:15.724Z,17.33
2019-02-17T05:23:49.015Z,18.07
2019-02-17T05:26:22.309Z,17.73
2019-02-17T05:28:56.629Z,17.97
2019-02-17T05:31:31.710Z,17.87
2019-02-17T05:34:04.984Z,17.17
2019-02-17T05:36:38.288Z,18.07
2019-02-17T05:39:11.599Z,20.03
2019-02-17T05:41:44.887Z,19.30
2019-02-17T05:44:18.163Z,17.93
2019-02-17T05:46:51.467Z,18.20
2019-02-17T05:49:24.735Z,19.03
2019-02-17T05:51:59.685Z,18.17
2019-02-17T05:54:32.996Z,18.47
2019-02-17T05:57:06.313Z,18.20
2019-02-17T05:59:39.426Z,19.67
2019-02-17T06:02:12.722Z,19.47
2019-02-17T06:04:46.015Z,17.40
2019-02-17T06:07:19.306Z,17.97
2019-02-17T06:09:52.629Z,20.03
2019-02-17T06:12:25.880Z,18.70
2019-02-17T06:15:00.847Z,19.10
2019-02-17T06:17:36.227Z,20.37
2019-02-17T06:20:10.867Z,18.87
2019-02-17T06:22:45.315Z,19.80
2019-02-17T06:25:18.604Z,18.43
2019-02-17T06:27:51.895Z,18.03
2019-02-17T06:30:25.204Z,18.00
2019-02-17T06:32:59.832Z,18.53
2019-02-17T06:35:33.107Z,18.53
2019-02-17T06:38:06.405Z,17.73
2019-02-17T06:40:41.249Z,17.57
2019-02-17T06:43:15.282Z,17.33
2019-02-17T06:45:48.584Z,17.57
2019-02-17T06:48:21.864Z,19.33
2019-02-17T06:50:55.196Z,17.47
2019-02-17T06:53:28.498Z,15.83
2019-02-17T06:56:03.435Z,17.17
2019-02-17T06:58:36.721Z,16.67
2019-02-17T07:01:10.013Z,16.43
2019-02-17T07:03:44.935Z,16.53
2019-02-17T07:06:22.584Z,17.33
2019-02-17T07:08:55.857Z,16.33
2019-02-17T07:11:29.173Z,16.63
2019-02-17T07:14:02.455Z,17.30
2019-02-17T07:16:35.779Z,19.97
2019-02-17T07:19:09.066Z,17.50
2019-02-17T07:21:42.364Z,16.63
2019-02-17T07:24:15.668Z,16.90
2019-02-17T07:26:48.971Z,17.70
2019-02-17T07:29:22.255Z,16.53
2019-02-17T07:31:55.567Z,16.03
2019-02-17T07:34:28.849Z,16.87
2019-02-17T07:37:02.156Z,18.93
2019-02-17T07:39:35.271Z,18.47
2019-02-17T07:42:09.636Z,16.07
2019-02-17T07:44:43.040Z,16.13
2019-02-17T07:47:18.135Z,17.60
2019-02-17T07:49:51.510Z,18.03
2019-02-17T07:52:24.806Z,16.57
2019-02-17T07:54:58.095Z,16.57
2019-02-17T07:57:31.399Z,16.67
2019-02-17T08:00:07.824Z,16.57
2019-02-17T08:02:41.712Z,18.83
2019-02-17T08:05:15.000Z,18.20
2019-02-17T08:07:48.300Z,18.37
2019-02-17T08:10:21.579Z,17.10
2019-02-17T08:12:56.219Z,18.20
2019-02-17T08:15:29.511Z,16.60
2019-02-17T08:18:02.803Z,18.10
2019-02-17T08:20:36.644Z,17.20
2019-02-17T08:23:10.143Z,17.07
2019-02-17T08:25:43.439Z,16.33
2019-02-17T08:28:16.748Z,17.43
2019-02-17T08:30:50.029Z,15.83
2019-02-17T08:33:23.384Z,15.93
2019-02-17T08:35:56.669Z,15.13
2019-02-17T08:38:29.996Z,15.77
2019-02-17T08:41:04.654Z,14.60
2019-02-17T08:43:39.068Z,14.50
2019-02-17T08:46:12.350Z,14.43
2019-02-17T08:48:45.660Z,15.73
2019-02-17T08:51:18.954Z,15.33
2019-02-17T08:53:52.361Z,15.23
2019-02-17T08:56:25.659Z,16.30
2019-02-17T08:58:59.029Z,15.33
2019-02-17T09:01:32.293Z,16.87
2019-02-17T09:04:05.615Z,16.17
2019-02-17T09:06:38.959Z,16.67
2019-02-17T09:09:13.805Z,17.90
2019-02-17T09:11:47.095Z,16.73
2019-02-17T09:14:20.412Z,16.47
2019-02-17T09:16:53.704Z,15.40
2019-02-17T09:19:27.018Z,14.37
2019-02-17T09:22:00.301Z,15.93
2019-02-17T09:24:33.632Z,15.20
2019-02-17T09:27:06.910Z,16.27
2019-02-17T09:29:40.204Z,16.17
2019-02-17T09:32:16.213Z,16.50
2019-02-17T09:34:48.529Z,16.23
2019-02-17T09:37:21.901Z,16.23
2019-02-17T09:39:55.202Z,16.17
2019-02-17T09:42:28.540Z,15.13
2019-02-17T09:45:01.953Z,15.13
2019-02-17T09:47:35.260Z,15.23
2019-02-17T09:50:13.108Z,15.60
2019-02-17T09:52:46.394Z,15.97
2019-02-17T09:55:20.576Z,14.73
2019-02-17T09:57:53.910Z,14.20
2019-02-17T10:00:27.223Z,15.23
2019-02-17T10:03:00.523Z,14.70
2019-02-17T10:05:33.857Z,14.50
2019-02-17T10:08:07.154Z,13.63
2019-02-17T10:10:40.466Z,14.50
2019-02-17T10:13:13.750Z,14.30
2019-02-17T10:15:47.119Z,14.47
2019-02-17T10:18:20.392Z,14.43
2019-02-17T10:20:53.722Z,14.63
2019-02-17T10:23:27.011Z,14.63
2019-02-17T10:26:00.328Z,14.00
2019-02-17T10:28:42.066Z,14.23
2019-02-17T10:31:08.734Z,14.20
2019-02-17T10:33:42.005Z,14.77
2019-02-17T10:36:15.311Z,14.80
2019-02-17T10:38:48.605Z,14.00
2019-02-17T10:41:21.917Z,14.13
2019-02-17T10:43:55.207Z,13.80
2019-02-17T10:46:28.516Z,14.50
2019-02-17T10:49:01.824Z,13.10
2019-02-17T10:51:35.109Z,14.37
2019-02-17T10:54:08.409Z,13.70
2019-02-17T10:56:43.324Z,13.67
2019-02-17T10:59:16.625Z,14.50
2019-02-17T11:01:49.991Z,14.13
2019-02-17T11:04:23.312Z,14.50
2019-02-17T11:06:56.592Z,13.47
2019-02-17T11:09:29.895Z,13.33
2019-02-17T11:12:03.210Z,13.83
2019-02-17T11:14:36.524Z,15.10
2019-02-17T11:17:09.831Z,14.23
2019-02-17T11:19:43.120Z,15.00
2019-02-17T11:22:22.946Z,15.00
2019-02-17T11:24:52.988Z,13.93
2019-02-17T11:27:26.274Z,13.57
2019-02-17T11:29:59.585Z,14.90
2019-02-17T11:32:32.889Z,14.03
2019-02-17T11:35:06.920Z,14.03
2019-02-17T11:37:40.207Z,14.07
2019-02-17T11:40:13.891Z,14.53
2019-02-17T11:42:47.167Z,15.03
2019-02-17T11:45:21.032Z,13.47
2019-02-17T11:47:54.563Z,14.73
2019-02-17T11:50:28.968Z,14.20
2019-02-17T11:53:02.252Z,14.83
2019-02-17T11:55:35.404Z,14.28
2019-02-17T11:58:08.706Z,13.98
2019-02-17T12:00:41.823Z,14.28
2019-02-17T12:03:15.126Z,14.73
2019-02-17T12:05:48.415Z,13.70
2019-02-17T12:08:21.708Z,13.80
2019-02-17T12:10:55.047Z,13.30
2019-02-17T12:13:28.359Z,13.85
2019-02-17T12:16:01.691Z,13.58
2019-02-17T12:18:34.986Z,14.38
2019-02-17T12:21:12.679Z,13.65
2019-02-17T12:24:03.485Z,14.93
2019-02-17T12:26:44.251Z,14.43
2019-02-17T12:29:19.169Z,13.10
2019-02-17T12:31:52.469Z,14.58
2019-02-17T12:34:25.828Z,13.35
2019-02-17T12:36:59.142Z,12.80
2019-02-17T12:39:32.420Z,14.73
2019-02-17T12:42:05.725Z,14.93
2019-02-17T12:44:39.112Z,14.60
2019-02-17T12:47:12.395Z,13.98
2019-02-17T12:49:45.676Z,13.93
2019-02-17T12:52:18.996Z,14.10
2019-02-17T12:54:52.280Z,14.68
2019-02-17T12:57:25.588Z,14.93
2019-02-17T12:59:58.871Z,15.25
2019-02-17T13:02:32.169Z,14.78
2019-02-17T13:05:07.627Z,14.87
2019-02-17T13:07:42.695Z,14.73
2019-02-17T13:10:15.990Z,14.00
2019-02-17T13:12:49.314Z,14.40
2019-02-17T13:15:22.590Z,14.28
2019-02-17T13:17:55.948Z,13.78
2019-02-17T13:20:29.187Z,14.00
2019-02-17T13:23:02.532Z,11.80
2019-02-17T13:25:38.082Z,12.55
2019-02-17T13:28:10.855Z,11.48
2019-02-17T13:30:44.134Z,11.35
2019-02-17T13:33:17.820Z,13.50
2019-02-17T13:35:51.135Z,10.53
2019-02-17T13:38:24.486Z,10.53
2019-02-17T13:40:57.783Z,10.93
2019-02-17T13:43:31.094Z,10.72
2019-02-17T13:46:04.407Z,10.90
2019-02-17T13:48:37.716Z,10.30
2019-02-17T13:51:11.027Z,10.98
2019-02-17T13:53:44.343Z,9.98
2019-02-17T13:56:17.634Z,9.83
2019-02-17T13:58:50.943Z,9.50
2019-02-17T14:01:24.245Z,10.20
2019-02-17T14:03:57.541Z,9.48
2019-02-17T14:06:30.825Z,8.50
2019-02-17T14:09:04.875Z,8.88
2019-02-17T14:11:38.181Z,8.48
2019-02-17T14:14:11.506Z,8.60
2019-02-17T14:16:44.788Z,8.20
2019-02-17T14:19:18.087Z,8.08
2019-02-17T14:21:51.389Z,8.88
2019-02-17T14:24:24.729Z,7.92
2019-02-17T14:26:58.013Z,8.80
2019-02-17T14:29:31.336Z,9.53
2019-02-17T14:32:06.265Z,10.13
2019-02-17T14:34:39.602Z,10.45
2019-02-17T14:37:13.366Z,9.58
2019-02-17T14:39:46.777Z,10.65
2019-02-17T14:42:20.148Z,9.85
2019-02-17T14:44:55.089Z,9.78
2019-02-17T14:47:28.402Z,10.18
2019-02-17T14:50:01.722Z,10.28
2019-02-17T14:52:35.098Z,10.20
2019-02-17T14:55:12.498Z,11.18
2019-02-17T14:57:45.793Z,10.25
2019-02-17T15:00:19.088Z,10.80
2019-02-17T15:02:52.383Z,9.65
2019-02-17T15:05:25.668Z,10.08
2019-02-17T15:07:58.971Z,9.43
2019-02-17T15:10:32.264Z,9.60
2019-02-17T15:13:05.618Z,9.50
2019-02-17T15:15:38.913Z,10.68
2019-02-17T15:18:12.257Z,12.95
2019-02-17T15:20:45.529Z,9.45
2019-02-17T15:23:18.863Z,8.55
2019-02-17T15:25:52.127Z,9.13
2019-02-17T15:28:25.504Z,10.53
2019-02-17T15:30:58.820Z,10.18
2019-02-17T15:33:33.122Z,9.60
2019-02-17T15:36:06.407Z,9.97
2019-02-17T15:38:39.722Z,10.00
2019-02-17T15:41:13.080Z,9.27
2019-02-17T15:43:48.031Z,9.50
2019-02-17T15:46:21.279Z,10.20
2019-02-17T15:48:54.596Z,12.37
2019-02-17T15:51:27.894Z,10.27
2019-02-17T15:54:01.201Z,10.60
2019-02-17T15:56:34.496Z,12.30
2019-02-17T15:59:07.787Z,11.10
2019-02-17T16:01:41.079Z,9.63
2019-02-17T16:04:14.387Z,8.80
2019-02-17T16:06:47.673Z,8.87
2019-02-17T16:09:20.985Z,8.33
2019-02-17T16:11:54.286Z,8.70
2019-02-17T16:14:27.623Z,8.63
2019-02-17T16:17:00.902Z,8.77
2019-02-17T16:19:34.224Z,8.27
2019-02-17T16:22:07.528Z,8.30
2019-02-17T16:24:40.821Z,9.10
2019-02-17T16:27:14.791Z,9.10
2019-02-17T16:29:48.113Z,9.03
2019-02-17T16:32:21.848Z,8.63
2019-02-17T16:34:55.136Z,8.87
2019-02-17T16:37:28.442Z,10.03
2019-02-17T16:40:01.760Z,9.50
2019-02-17T16:42:35.051Z,9.00
2019-02-17T16:45:10.809Z,9.80
2019-02-17T16:47:47.216Z,8.67
2019-02-17T16:50:31.043Z,8.43
2019-02-17T16:53:07.300Z,9.33
2019-02-17T16:55:41.150Z,8.53
2019-02-17T16:58:14.420Z,8.50
2019-02-17T17:00:48.017Z,8.00
2019-02-17T17:03:21.300Z,7.80
2019-02-17T17:05:54.625Z,8.87
2019-02-17T17:08:27.895Z,9.07
2019-02-17T17:11:04.349Z,8.40
2019-02-17T17:13:37.633Z,9.90
2019-02-17T17:16:10.973Z,7.87
2019-02-17T17:18:44.251Z,8.67
2019-02-17T17:21:17.545Z,8.60
2019-02-17T17:23:50.828Z,9.57
2019-02-17T17:26:24.130Z,8.87
2019-02-17T17:28:57.394Z,7.90
2019-02-17T17:31:30.707Z,9.17
2019-02-17T17:34:03.992Z,8.73
2019-02-17T17:36:37.345Z,9.73
2019-02-17T17:39:10.612Z,12.43
2019-02-17T17:41:43.922Z,17.63
2019-02-17T17:44:17.240Z,11.77
2019-02-17T17:46:50.599Z,10.17
2019-02-17T17:49:23.844Z,9.03
2019-02-17T17:51:57.150Z,8.63
2019-02-17T17:54:30.435Z,12.50
2019-02-17T17:57:03.924Z,10.47
2019-02-17T17:59:37.239Z,9.60
2019-02-17T18:02:10.565Z,9.97
2019-02-17T18:04:45.422Z,8.50
2019-02-17T18:07:18.732Z,7.70
2019-02-17T18:09:52.073Z,8.33
2019-02-17T18:12:25.346Z,8.37
2019-02-17T18:14:58.655Z,8.87
2019-02-17T18:17:31.953Z,8.17
2019-02-17T18:20:09.297Z,7.73
2019-02-17T18:22:42.702Z,8.53
2019-02-17T18:25:16.076Z,10.10
2019-02-17T18:27:49.372Z,10.63
2019-02-17T18:30:22.658Z,10.13
2019-02-17T18:32:55.990Z,9.40
2019-02-17T18:35:29.298Z,10.60
2019-02-17T18:38:02.594Z,11.57
2019-02-17T18:40:44.734Z,11.13
2019-02-17T18:43:11.025Z,9.73
2019-02-17T18:45:44.296Z,10.93
2019-02-17T18:48:17.671Z,11.20
2019-02-17T18:50:58.920Z,11.43
2019-02-17T18:53:26.002Z,11.93
2019-02-17T18:55:59.307Z,13.57
2019-02-17T18:58:32.590Z,13.10
2019-02-17T19:01:05.990Z,13.03
2019-02-17T19:03:39.274Z,14.77
2019-02-17T19:06:12.649Z,15.67
2019-02-17T19:08:45.920Z,15.23
2019-02-17T19:11:19.279Z,14.50
2019-02-17T19:13:52.574Z,15.77
2019-02-17T19:16:25.952Z,14.70
2019-02-17T19:18:59.239Z,15.33
2019-02-17T19:21:32.565Z,13.53
2019-02-17T19:24:05.875Z,13.40
2019-02-17T19:26:40.350Z,14.50
2019-02-17T19:29:13.714Z,14.30
2019-02-17T19:31:47.015Z,13.63
2019-02-17T19:34:20.302Z,11.87
2019-02-17T19:36:53.694Z,13.07
2019-02-17T19:39:26.996Z,12.90
2019-02-17T19:42:00.296Z,11.53
2019-02-17T19:44:33.595Z,11.17
2019-02-17T19:47:06.966Z,12.93
2019-02-17T19:49:40.258Z,11.50
2019-02-17T19:52:13.560Z,11.70
2019-02-17T19:54:47.446Z,12.33
2019-02-17T19:57:21.424Z,12.97
2019-02-17T19:59:54.759Z,11.07
2019-02-17T20:02:29.738Z,10.97
2019-02-17T20:05:08.035Z,10.47
2019-02-17T20:07:41.336Z,12.33
2019-02-17T20:10:14.715Z,11.90
2019-02-17T20:12:47.984Z,12.17
2019-02-17T20:15:23.149Z,12.20
2019-02-17T20:17:56.493Z,12.40
2019-02-17T20:20:29.774Z,11.37
2019-02-17T20:23:04.496Z,10.83
2019-02-17T20:25:37.801Z,17.67
2019-02-17T20:28:11.673Z,11.33
2019-02-17T20:30:44.981Z,10.93
2019-02-17T20:33:18.291Z,11.20
2019-02-17T20:36:02.103Z,10.70
2019-02-17T20:38:26.678Z,10.63
2019-02-17T20:41:00.228Z,12.30
2019-02-17T20:43:33.639Z,14.57
2019-02-17T20:46:06.934Z,12.27
2019-02-17T20:48:40.347Z,13.20
2019-02-17T20:51:13.640Z,12.63
2019-02-17T20:53:47.552Z,12.83
2019-02-17T20:56:20.798Z,13.53
2019-02-17T20:58:54.107Z,16.53
2019-02-17T21:01:27.534Z,14.90
2019-02-17T21:04:00.840Z,14.50
2019-02-17T21:06:34.130Z,14.27
2019-02-17T21:09:07.432Z,13.80
2019-02-17T21:11:40.730Z,12.67
2019-02-17T21:14:14.041Z,11.80
2019-02-17T21:16:47.327Z,14.93
2019-02-17T21:19:20.653Z,17.07
2019-02-17T21:21:54.008Z,16.07
2019-02-17T21:24:28.399Z,16.00
2019-02-17T21:27:03.322Z,10.10
2019-02-17T21:29:38.254Z,9.37
2019-02-17T21:32:11.531Z,7.93
2019-02-17T21:34:44.843Z,8.40
2019-02-17T21:37:18.125Z,8.07
2019-02-17T21:39:51.414Z,7.30
2019-02-17T21:42:24.761Z,7.70
2019-02-17T21:44:58.078Z,8.87
2019-02-17T21:47:31.353Z,9.67
2019-02-17T21:50:13.377Z,10.13
2019-02-17T21:52:46.655Z,15.63
2019-02-17T21:55:20.017Z,17.30
2019-02-17T21:57:53.599Z,19.70
2019-02-17T22:00:26.940Z,16.07
2019-02-17T22:03:00.227Z,15.77
2019-02-17T22:05:35.191Z,16.73
2019-02-17T22:08:08.440Z,17.87
2019-02-17T22:10:41.759Z,17.00
2019-02-17T22:13:15.047Z,17.23
2019-02-17T22:15:48.336Z,16.67
2019-02-17T22:18:21.616Z,16.50
2019-02-17T22:20:54.949Z,14.57
2019-02-17T22:23:29.769Z,12.23
2019-02-17T22:26:03.082Z,13.00
2019-02-17T22:28:36.353Z,13.33
2019-02-17T22:31:09.694Z,14.20
2019-02-17T22:33:45.804Z,14.00
2019-02-17T22:36:19.123Z,14.37
2019-02-17T22:38:52.396Z,14.90
2019-02-17T22:41:25.843Z,15.57
2019-02-17T22:43:59.128Z,14.80
2019-02-17T22:46:32.424Z,19.10
2019-02-17T22:49:05.730Z,19.10
2019-02-17T22:51:39.015Z,17.27
2019-02-17T22:54:12.296Z,21.43
2019-02-17T22:56:45.587Z,17.87
2019-02-17T22:59:18.874Z,15.13
2019-02-17T23:01:52.185Z,13.27
2019-02-17T23:04:25.473Z,13.30
2019-02-17T23:06:58.848Z,15.27
2019-02-17T23:09:32.130Z,14.67
2019-02-17T23:12:05.576Z,12.13
2019-02-17T23:14:38.893Z,11.90
2019-02-17T23:17:12.169Z,11.90
2019-02-17T23:19:45.481Z,10.90
2019-02-17T23:22:18.784Z,11.20
2019-02-17T23:24:52.151Z,9.83
2019-02-17T23:27:25.437Z,10.70
2019-02-17T23:29:58.732Z,10.40
2019-02-17T23:32:32.027Z,10.33
2019-02-17T23:35:05.668Z,9.17
2019-02-17T23:37:38.943Z,9.40
2019-02-17T23:40:12.424Z,9.23
2019-02-17T23:42:45.708Z,9.67
2019-02-17T23:45:19.055Z,9.57
2019-02-17T23:47:52.334Z,10.40
2019-02-17T23:50:25.761Z,10.10
2019-02-17T23:53:00.423Z,9.90
2019-02-17T23:55:33.729Z,9.67
2019-02-17T23:58:07.022Z,8.70
